Time;durP1;ratioP1;P1;durP2;ratioP2;P2;SDS_P1;SDS_P2;PMS_P1;PMS_P2;Temp;Humidity;BMP_temperature;BMP_pressure;BME280_temperature;BME280_humidity;BME280_pressure;Samples;Min_cycle;Max_cycle;Signal;HPM_P1;HPM_P2
2023/02/19 00:01:26;;;;;;;226.13;10.77;;;;;;;;;;4960461;28;20109;-61
2023/02/19 00:03:56;;;;;;;142.23;8.88;;;;;;;;;;4964070;28;20041;-62
2023/02/19 00:06:22;;;;;;;173.57;9.32;;;;;;;;;;4963793;28;20030;-60
2023/02/19 00:08:47;;;;;;;158.88;7.10;;;;;;;;;;4963782;28;20093;-62
2023/02/19 00:11:14;;;;;;;125.50;6.88;;;;;;;;;;4963043;28;20034;-58
2023/02/19 00:13:41;;;;;;;189.23;9.02;;;;;;;;;;4965301;28;20065;-58
2023/02/19 00:16:19;;;;;;;210.48;9.90;;;;;;;;;;4961014;28;20392;-59
2023/02/19 00:18:45;;;;;;;236.23;11.70;;;;;;;;;;4962351;28;20018;-61
2023/02/19 00:21:10;;;;;;;128.70;6.70;;;;;;;;;;4963090;28;20069;-60
2023/02/19 00:23:36;;;;;;;153.20;7.95;;;;;;;;;;4967369;28;20026;-60
2023/02/19 00:26:05;;;;;;;164.55;8.50;;;;;;;;;;4966491;28;20185;-59
2023/02/19 00:28:30;;;;;;;141.60;7.65;;;;;;;;;;4959725;28;20063;-60
2023/02/19 00:31:02;;;;;;;206.70;9.70;;;;;;;;;;4965432;28;20041;-59
2023/02/19 00:33:28;;;;;;;144.82;7.47;;;;;;;;;;4967364;28;20103;-60
2023/02/19 00:35:53;;;;;;;160.95;8.13;;;;;;;;;;4964568;28;20031;-60
2023/02/19 00:38:18;;;;;;;166.07;7.37;;;;;;;;;;4963804;28;20034;-60
2023/02/19 00:40:44;;;;;;;141.50;6.93;;;;;;;;;;4965207;28;20271;-60
2023/02/19 00:43:09;;;;;;;170.93;7.80;;;;;;;;;;4965121;28;20038;-60
2023/02/19 00:45:34;;;;;;;150.37;7.27;;;;;;;;;;4963292;28;20273;-60
2023/02/19 00:47:59;;;;;;;141.93;7.75;;;;;;;;;;4967920;28;20297;-59
2023/02/19 00:50:25;;;;;;;189.53;9.23;;;;;;;;;;4968858;28;20041;-59
2023/02/19 00:52:50;;;;;;;120.20;6.13;;;;;;;;;;4967721;28;20324;-60
2023/02/19 00:55:15;;;;;;;150.63;7.90;;;;;;;;;;4965807;28;20264;-59
2023/02/19 00:57:40;;;;;;;149.02;7.72;;;;;;;;;;4948674;28;20271;-61
2023/02/19 01:00:06;;;;;;;139.80;7.43;;;;;;;;;;4964759;28;20027;-62
2023/02/19 01:02:31;;;;;;;201.20;8.52;;;;;;;;;;4963969;28;20313;-63
2023/02/19 01:04:56;;;;;;;146.55;7.70;;;;;;;;;;4967977;28;20037;-61
2023/02/19 01:07:21;;;;;;;120.13;6.47;;;;;;;;;;4966582;28;20026;-62
2023/02/19 01:09:47;;;;;;;217.63;10.63;;;;;;;;;;4967184;28;20344;-62
2023/02/19 01:12:12;;;;;;;129.63;7.53;;;;;;;;;;4964780;28;20050;-62
2023/02/19 01:14:37;;;;;;;144.70;8.63;;;;;;;;;;4966020;28;20734;-62
2023/02/19 01:17:02;;;;;;;147.00;7.73;;;;;;;;;;4966403;28;21037;-63
2023/02/19 01:19:28;;;;;;;157.63;7.43;;;;;;;;;;4965502;28;20769;-63
2023/02/19 01:21:53;;;;;;;170.13;9.27;;;;;;;;;;4964613;28;20421;-63
2023/02/19 01:24:18;;;;;;;132.43;7.18;;;;;;;;;;4966008;28;20933;-61
2023/02/19 01:26:43;;;;;;;144.30;7.93;;;;;;;;;;4965487;28;20133;-62
2023/02/19 01:29:09;;;;;;;168.63;8.53;;;;;;;;;;4964375;28;20280;-62
2023/02/19 01:31:35;;;;;;;189.63;9.80;;;;;;;;;;4963017;28;20284;-62
2023/02/19 01:34:01;;;;;;;171.30;10.50;;;;;;;;;;4964376;28;20046;-62
2023/02/19 01:36:26;;;;;;;153.02;8.27;;;;;;;;;;4964506;28;20027;-62
2023/02/19 01:38:52;;;;;;;138.35;7.57;;;;;;;;;;4965735;28;20081;-62
2023/02/19 01:41:19;;;;;;;196.18;14.88;;;;;;;;;;4965131;28;20510;-61
2023/02/19 01:43:56;;;;;;;132.20;11.02;;;;;;;;;;4967497;28;20029;-62
2023/02/19 01:46:23;;;;;;;149.18;9.30;;;;;;;;;;4965966;28;20038;-61
2023/02/19 01:48:49;;;;;;;125.47;7.90;;;;;;;;;;4966482;28;20596;-62
2023/02/19 01:51:16;;;;;;;133.57;7.78;;;;;;;;;;4967290;28;20490;-63
2023/02/19 01:53:46;;;;;;;150.15;7.32;;;;;;;;;;4967022;28;20105;-62
2023/02/19 01:56:13;;;;;;;126.13;7.43;;;;;;;;;;4967528;28;20031;-62
2023/02/19 01:58:39;;;;;;;179.27;8.43;;;;;;;;;;4966298;28;20030;-62
2023/02/19 02:01:05;;;;;;;149.00;7.50;;;;;;;;;;4963886;28;20035;-62
2023/02/19 02:03:31;;;;;;;162.90;9.10;;;;;;;;;;4966707;28;20085;-61
2023/02/19 02:06:02;;;;;;;174.32;9.13;;;;;;;;;;4965978;28;20133;-63
2023/02/19 02:11:13;;;;;;;113.45;7.47;;;;;;;;;;4966267;28;20142;-62
2023/02/19 02:13:39;;;;;;;132.65;7.93;;;;;;;;;;4967654;28;20746;-62
2023/02/19 02:16:10;;;;;;;185.82;9.27;;;;;;;;;;4964578;28;20050;-62
2023/02/19 02:18:35;;;;;;;142.57;7.38;;;;;;;;;;4966600;28;20102;-60
2023/02/19 02:21:00;;;;;;;153.90;7.93;;;;;;;;;;4965904;28;20030;-61
2023/02/19 02:23:28;;;;;;;140.67;6.27;;;;;;;;;;4967140;28;20343;-62
2023/02/19 02:26:06;;;;;;;130.85;7.75;;;;;;;;;;4966318;28;20067;-61
2023/02/19 02:28:44;;;;;;;151.00;7.93;;;;;;;;;;4965396;28;20057;-63
2023/02/19 02:31:32;;;;;;;135.50;7.35;;;;;;;;;;4965789;28;20037;-62
2023/02/19 02:34:06;;;;;;;155.90;8.10;;;;;;;;;;4963574;28;20034;-62
2023/02/19 02:36:34;;;;;;;162.35;7.93;;;;;;;;;;4967621;28;20038;-62
2023/02/19 02:39:02;;;;;;;149.43;7.60;;;;;;;;;;4969329;28;20886;-61
2023/02/19 02:41:27;;;;;;;153.98;7.10;;;;;;;;;;4968240;28;20040;-61
2023/02/19 02:43:52;;;;;;;167.98;7.82;;;;;;;;;;4970082;28;20042;-61
2023/02/19 02:46:21;;;;;;;142.43;8.10;;;;;;;;;;4970011;28;20031;-62
2023/02/19 02:48:52;;;;;;;154.77;7.32;;;;;;;;;;4969306;28;20046;-62
2023/02/19 02:51:26;;;;;;;104.40;6.82;;;;;;;;;;4967904;28;20125;-60
2023/02/19 02:56:41;;;;;;;126.00;7.18;;;;;;;;;;4969773;28;20185;-63
2023/02/19 02:59:08;;;;;;;181.88;8.70;;;;;;;;;;4968365;28;20121;-61
2023/02/19 03:04:29;;;;;;;112.38;6.65;;;;;;;;;;4969982;28;20045;-61
2023/02/19 03:06:54;;;;;;;138.77;7.10;;;;;;;;;;4967801;28;20105;-61
2023/02/19 03:09:29;;;;;;;158.30;7.68;;;;;;;;;;4966999;28;20019;-61
2023/02/19 03:20:34;;;;;;;175.52;7.93;;;;;;;;;;4966472;28;20056;-59
2023/02/19 03:23:00;;;;;;;151.65;6.38;;;;;;;;;;4967277;28;20023;-60
2023/02/19 03:28:16;;;;;;;116.05;6.70;;;;;;;;;;4967069;28;20813;-62
2023/02/19 03:30:44;;;;;;;157.02;6.95;;;;;;;;;;4968519;28;20031;-61
2023/02/19 03:33:14;;;;;;;120.80;6.30;;;;;;;;;;4969562;28;20100;-64
2023/02/19 03:35:51;;;;;;;157.43;7.18;;;;;;;;;;4968501;28;20033;-61
2023/02/19 03:38:20;;;;;;;105.15;4.93;;;;;;;;;;4968303;28;20041;-61
2023/02/19 03:41:04;;;;;;;142.70;6.38;;;;;;;;;;4967630;28;20042;-60
2023/02/19 03:43:41;;;;;;;143.93;6.95;;;;;;;;;;4969214;28;21104;-61
2023/02/19 03:46:06;;;;;;;154.95;6.63;;;;;;;;;;4966959;28;20038;-62
2023/02/19 03:48:33;;;;;;;141.97;6.77;;;;;;;;;;4969169;28;20038;-61
2023/02/19 03:51:03;;;;;;;139.63;6.63;;;;;;;;;;4967325;28;20110;-60
2023/02/19 03:53:33;;;;;;;139.70;6.47;;;;;;;;;;4967557;28;20030;-61
2023/02/19 03:55:59;;;;;;;161.70;7.30;;;;;;;;;;4967768;28;20039;-61
2023/02/19 03:58:29;;;;;;;129.07;6.27;;;;;;;;;;4967736;28;20030;-60
2023/02/19 04:00:57;;;;;;;128.95;6.78;;;;;;;;;;4967643;28;20041;-61
2023/02/19 04:03:41;;;;;;;171.52;8.23;;;;;;;;;;4967065;28;20030;-60
2023/02/19 04:06:12;;;;;;;151.80;7.50;;;;;;;;;;4967990;28;20751;-62
2023/02/19 04:08:39;;;;;;;119.32;5.65;;;;;;;;;;4967305;28;20128;-62
2023/02/19 04:11:05;;;;;;;133.25;6.65;;;;;;;;;;4965902;28;20505;-61
2023/02/19 04:13:36;;;;;;;173.80;7.70;;;;;;;;;;4967298;28;20028;-62
2023/02/19 04:16:05;;;;;;;139.93;6.93;;;;;;;;;;4968359;28;20516;-61
2023/02/19 04:18:32;;;;;;;128.35;5.95;;;;;;;;;;4968263;28;20053;-62
2023/02/19 04:20:58;;;;;;;111.63;5.82;;;;;;;;;;4964912;28;20031;-61
2023/02/19 04:23:25;;;;;;;81.88;4.85;;;;;;;;;;4967272;28;20053;-59
2023/02/19 04:25:53;;;;;;;110.22;5.85;;;;;;;;;;4967373;28;20785;-61
2023/02/19 04:28:18;;;;;;;126.53;6.45;;;;;;;;;;4967998;28;20030;-62
2023/02/19 04:30:44;;;;;;;138.07;6.73;;;;;;;;;;4966570;28;20026;-59
2023/02/19 04:33:09;;;;;;;143.98;6.55;;;;;;;;;;4966701;28;20313;-59
2023/02/19 04:35:34;;;;;;;120.43;6.03;;;;;;;;;;4966371;28;20042;-61
2023/02/19 04:38:00;;;;;;;170.07;6.88;;;;;;;;;;4967786;28;20018;-60
2023/02/19 04:40:25;;;;;;;119.30;6.22;;;;;;;;;;4968368;28;20671;-59
2023/02/19 04:42:50;;;;;;;132.20;5.90;;;;;;;;;;4967548;28;20018;-60
2023/02/19 04:45:15;;;;;;;147.63;6.87;;;;;;;;;;4967657;28;20264;-59
2023/02/19 04:47:40;;;;;;;132.50;6.50;;;;;;;;;;4965699;28;20258;-61
2023/02/19 04:50:06;;;;;;;141.90;6.40;;;;;;;;;;4966815;28;20027;-62
2023/02/19 04:52:32;;;;;;;152.75;6.60;;;;;;;;;;4967037;28;20250;-61
2023/02/19 04:54:57;;;;;;;124.55;5.68;;;;;;;;;;4966311;28;20033;-61
2023/02/19 04:57:22;;;;;;;140.43;6.50;;;;;;;;;;4965762;28;20054;-62
2023/02/19 04:59:47;;;;;;;177.07;7.90;;;;;;;;;;4966997;28;20382;-62
2023/02/19 05:02:13;;;;;;;141.53;6.70;;;;;;;;;;4966890;28;20287;-62
2023/02/19 05:04:38;;;;;;;173.67;8.17;;;;;;;;;;4967341;28;20026;-62
2023/02/19 05:07:03;;;;;;;137.53;6.60;;;;;;;;;;4966143;28;20274;-60
2023/02/19 05:09:28;;;;;;;107.97;5.30;;;;;;;;;;4966689;28;20284;-59
2023/02/19 05:11:53;;;;;;;146.07;6.80;;;;;;;;;;4966896;28;20275;-62
2023/02/19 05:14:19;;;;;;;128.47;6.50;;;;;;;;;;4966618;28;20262;-60
2023/02/19 05:16:44;;;;;;;133.95;6.43;;;;;;;;;;4967469;28;20266;-59
2023/02/19 05:19:10;;;;;;;139.03;6.00;;;;;;;;;;4967141;28;20030;-62
2023/02/19 05:21:35;;;;;;;144.88;6.70;;;;;;;;;;4966723;28;20344;-62
2023/02/19 05:24:00;;;;;;;153.50;6.33;;;;;;;;;;4966604;28;20034;-61
2023/02/19 05:26:26;;;;;;;131.00;6.17;;;;;;;;;;4966723;28;20279;-61
2023/02/19 05:28:52;;;;;;;114.07;5.93;;;;;;;;;;4968697;28;20281;-60
2023/02/19 05:31:18;;;;;;;162.48;6.43;;;;;;;;;;4964727;28;20033;-61
2023/02/19 05:33:44;;;;;;;137.70;6.25;;;;;;;;;;4967386;28;20023;-62
2023/02/19 05:36:11;;;;;;;125.90;6.18;;;;;;;;;;4966636;28;20034;-62
2023/02/19 05:38:36;;;;;;;148.52;7.15;;;;;;;;;;4966268;28;20576;-62
2023/02/19 05:41:08;;;;;;;138.25;6.40;;;;;;;;;;4965516;28;20042;-61
2023/02/19 05:43:33;;;;;;;135.15;5.90;;;;;;;;;;4967870;28;20022;-61
2023/02/19 05:45:58;;;;;;;140.65;6.40;;;;;;;;;;4965717;28;20038;-62
2023/02/19 05:48:23;;;;;;;143.27;6.37;;;;;;;;;;4967301;28;20034;-62
2023/02/19 05:50:49;;;;;;;138.07;5.87;;;;;;;;;;4964927;28;21349;-62
2023/02/19 05:53:14;;;;;;;120.27;5.67;;;;;;;;;;4966894;28;20682;-61
2023/02/19 05:55:39;;;;;;;158.70;6.87;;;;;;;;;;4966236;28;20270;-61
2023/02/19 05:58:04;;;;;;;125.97;5.63;;;;;;;;;;4966281;28;20250;-61
2023/02/19 06:00:31;;;;;;;132.50;6.07;;;;;;;;;;4965428;28;20261;-64
2023/02/19 06:02:56;;;;;;;163.57;7.07;;;;;;;;;;4965016;28;20304;-62
2023/02/19 06:05:21;;;;;;;121.22;5.40;;;;;;;;;;4967226;28;20097;-60
2023/02/19 06:07:49;;;;;;;132.20;5.78;;;;;;;;;;4967686;28;20022;-63
2023/02/19 06:10:14;;;;;;;121.90;5.50;;;;;;;;;;4967636;28;20533;-62
2023/02/19 06:12:39;;;;;;;139.50;5.53;;;;;;;;;;4969200;28;20509;-61
2023/02/19 06:15:05;;;;;;;153.43;6.27;;;;;;;;;;4968963;28;20613;-63
2023/02/19 06:17:31;;;;;;;134.00;5.57;;;;;;;;;;4969312;28;20262;-62
2023/02/19 06:19:56;;;;;;;150.38;6.15;;;;;;;;;;4969857;28;20678;-62
2023/02/19 06:22:21;;;;;;;167.13;7.00;;;;;;;;;;4968760;28;20113;-62
2023/02/19 06:24:47;;;;;;;121.73;5.47;;;;;;;;;;4969414;28;20258;-62
2023/02/19 06:27:12;;;;;;;139.27;5.75;;;;;;;;;;4968831;28;20273;-62
2023/02/19 06:29:37;;;;;;;148.77;6.50;;;;;;;;;;4969780;28;20045;-62
2023/02/19 06:32:03;;;;;;;137.68;5.72;;;;;;;;;;4969883;28;20960;-63
2023/02/19 06:34:29;;;;;;;156.15;6.13;;;;;;;;;;4970399;28;20026;-62
2023/02/19 06:36:54;;;;;;;124.60;5.50;;;;;;;;;;4970162;28;20610;-62
2023/02/19 06:39:19;;;;;;;160.17;6.67;;;;;;;;;;4969831;28;20115;-62
2023/02/19 06:41:45;;;;;;;147.70;5.87;;;;;;;;;;4970566;28;20836;-62
2023/02/19 06:44:10;;;;;;;116.33;5.13;;;;;;;;;;4970195;28;20250;-62
2023/02/19 06:46:35;;;;;;;139.40;5.63;;;;;;;;;;4969465;28;20265;-62
2023/02/19 06:49:02;;;;;;;133.80;6.20;;;;;;;;;;4971176;28;20347;-62
2023/02/19 06:51:28;;;;;;;126.72;5.97;;;;;;;;;;4970339;28;20640;-62
2023/02/19 06:53:54;;;;;;;143.18;6.50;;;;;;;;;;4970276;28;20023;-62
2023/02/19 06:56:19;;;;;;;135.30;5.80;;;;;;;;;;4969837;28;20580;-63
2023/02/19 06:58:44;;;;;;;139.73;5.90;;;;;;;;;;4970254;28;20034;-60
2023/02/19 07:01:10;;;;;;;159.40;6.27;;;;;;;;;;4969314;28;20133;-60
2023/02/19 07:03:35;;;;;;;136.05;5.90;;;;;;;;;;4969890;28;20337;-62
2023/02/19 07:06:00;;;;;;;137.03;5.93;;;;;;;;;;4969902;28;20027;-61
2023/02/19 07:08:26;;;;;;;151.33;6.30;;;;;;;;;;4968624;28;20313;-63
2023/02/19 07:10:55;;;;;;;137.38;5.72;;;;;;;;;;4968985;28;20273;-61
2023/02/19 07:13:20;;;;;;;129.75;5.85;;;;;;;;;;4968772;28;20693;-62
2023/02/19 07:15:45;;;;;;;115.30;5.03;;;;;;;;;;4969123;28;20041;-61
2023/02/19 07:18:10;;;;;;;137.03;6.00;;;;;;;;;;4969449;28;20258;-62
2023/02/19 07:20:36;;;;;;;164.63;6.60;;;;;;;;;;4968187;28;20332;-61
2023/02/19 07:23:01;;;;;;;147.13;5.90;;;;;;;;;;4969654;28;20346;-62
2023/02/19 07:25:27;;;;;;;116.43;5.23;;;;;;;;;;4969345;28;20088;-61
2023/02/19 07:27:52;;;;;;;143.33;6.27;;;;;;;;;;4969736;28;20312;-62
2023/02/19 07:30:17;;;;;;;150.45;6.50;;;;;;;;;;4969174;28;20478;-61
2023/02/19 07:32:44;;;;;;;124.15;5.25;;;;;;;;;;4968485;28;20039;-62
2023/02/19 07:35:09;;;;;;;155.88;6.32;;;;;;;;;;4965972;28;20819;-62
2023/02/19 07:37:34;;;;;;;134.43;5.80;;;;;;;;;;4969121;28;20026;-62
2023/02/19 07:40:00;;;;;;;163.52;6.50;;;;;;;;;;4967700;28;20117;-61
2023/02/19 07:42:25;;;;;;;119.43;5.30;;;;;;;;;;4968209;28;20901;-61
2023/02/19 07:44:50;;;;;;;119.07;5.10;;;;;;;;;;4951910;28;20789;-62
2023/02/19 07:47:15;;;;;;;173.23;6.67;;;;;;;;;;4966996;28;20337;-62
2023/02/19 07:49:41;;;;;;;201.80;7.70;;;;;;;;;;4967659;28;20278;-63
2023/02/19 07:52:06;;;;;;;130.33;5.47;;;;;;;;;;4966688;28;20321;-59
2023/02/19 07:54:31;;;;;;;187.83;7.23;;;;;;;;;;4967182;28;20297;-60
2023/02/19 07:56:57;;;;;;;154.77;6.18;;;;;;;;;;4966328;28;20393;-60
2023/02/19 07:59:22;;;;;;;144.97;5.80;;;;;;;;;;4969278;28;20381;-61
2023/02/19 08:04:31;;;;;;;131.10;5.75;;;;;;;;;;4971698;28;20307;-61
2023/02/19 08:06:56;;;;;;;113.27;4.83;;;;;;;;;;4970952;28;20450;-59
2023/02/19 08:09:22;;;;;;;117.38;5.22;;;;;;;;;;4970337;28;20281;-61
2023/02/19 08:14:31;;;;;;;120.80;5.20;;;;;;;;;;4970995;28;20401;-60
2023/02/19 08:16:56;;;;;;;131.43;5.60;;;;;;;;;;4969280;28;20125;-60
2023/02/19 08:19:21;;;;;;;108.03;4.80;;;;;;;;;;4969221;28;20026;-61
2023/02/19 08:21:47;;;;;;;121.57;5.40;;;;;;;;;;4969639;28;20923;-61
2023/02/19 08:24:12;;;;;;;101.20;4.80;;;;;;;;;;4968737;28;20022;-62
2023/02/19 08:26:37;;;;;;;106.40;4.77;;;;;;;;;;4967814;28;20126;-61
2023/02/19 08:29:03;;;;;;;115.83;4.97;;;;;;;;;;4971809;28;20277;-60
2023/02/19 08:31:29;;;;;;;104.88;4.60;;;;;;;;;;4968082;28;20312;-62
2023/02/19 08:33:54;;;;;;;116.85;5.13;;;;;;;;;;4970226;28;20022;-59
2023/02/19 08:36:19;;;;;;;134.97;5.73;;;;;;;;;;4953702;28;20046;-61
2023/02/19 08:38:44;;;;;;;116.27;5.23;;;;;;;;;;4971065;28;20265;-61
2023/02/19 08:41:10;;;;;;;107.32;4.53;;;;;;;;;;4955746;28;20273;-62
2023/02/19 08:43:36;;;;;;;126.97;5.10;;;;;;;;;;4969184;28;20113;-62
2023/02/19 08:46:02;;;;;;;108.45;4.95;;;;;;;;;;4969840;28;20948;-62
2023/02/19 08:48:27;;;;;;;120.65;4.97;;;;;;;;;;4969998;28;20077;-62
2023/02/19 08:50:56;;;;;;;110.28;4.80;;;;;;;;;;4966850;28;20038;-62
2023/02/19 08:53:22;;;;;;;114.18;4.72;;;;;;;;;;4969908;28;20756;-62
2023/02/19 08:55:48;;;;;;;141.38;5.57;;;;;;;;;;4968904;28;20029;-61
2023/02/19 08:58:13;;;;;;;114.43;4.65;;;;;;;;;;4968522;28;20026;-62
2023/02/19 09:00:38;;;;;;;104.93;4.53;;;;;;;;;;4967816;28;20062;-60
2023/02/19 09:03:05;;;;;;;136.23;5.47;;;;;;;;;;4968035;28;20292;-63
2023/02/19 09:05:30;;;;;;;92.88;4.00;;;;;;;;;;4970493;28;20035;-63
2023/02/19 09:07:55;;;;;;;132.40;5.35;;;;;;;;;;4968369;28;20385;-63
2023/02/19 09:10:21;;;;;;;106.47;4.70;;;;;;;;;;4967959;28;20037;-64
2023/02/19 09:12:46;;;;;;;101.30;4.78;;;;;;;;;;4968133;28;20018;-62
2023/02/19 09:15:11;;;;;;;154.53;6.00;;;;;;;;;;4968510;28;20088;-62
2023/02/19 09:17:36;;;;;;;100.80;4.53;;;;;;;;;;4967405;28;20340;-63
2023/02/19 09:20:02;;;;;;;99.63;4.47;;;;;;;;;;4968577;28;20262;-62
2023/02/19 09:22:28;;;;;;;121.38;5.28;;;;;;;;;;4968685;28;20270;-62
2023/02/19 09:24:53;;;;;;;101.85;4.55;;;;;;;;;;4969307;28;20026;-63
2023/02/19 09:27:19;;;;;;;106.05;4.72;;;;;;;;;;4954024;28;20062;-60
2023/02/19 09:29:44;;;;;;;147.40;5.70;;;;;;;;;;4968851;28;20115;-60
2023/02/19 09:32:10;;;;;;;104.10;4.47;;;;;;;;;;4956319;28;20064;-60
2023/02/19 09:34:35;;;;;;;135.73;5.43;;;;;;;;;;4968698;28;20526;-62
2023/02/19 09:37:00;;;;;;;83.03;3.90;;;;;;;;;;4968331;28;20031;-62
2023/02/19 09:39:26;;;;;;;108.30;4.63;;;;;;;;;;4967648;28;20112;-60
2023/02/19 09:41:53;;;;;;;133.77;5.78;;;;;;;;;;4966180;28;20254;-62
2023/02/19 09:44:28;;;;;;;116.65;5.00;;;;;;;;;;4973799;28;20037;-62
2023/02/19 09:46:54;;;;;;;136.20;5.70;;;;;;;;;;4972405;28;20034;-62
2023/02/19 09:49:22;;;;;;;178.35;7.05;;;;;;;;;;4971453;28;20081;-62
2023/02/19 09:51:49;;;;;;;117.57;5.22;;;;;;;;;;4968468;28;20045;-63
2023/02/19 09:54:25;;;;;;;142.13;5.85;;;;;;;;;;4972472;28;20018;-60
2023/02/19 09:56:51;;;;;;;142.73;5.88;;;;;;;;;;4969352;28;20039;-61
2023/02/19 09:59:19;;;;;;;154.85;6.13;;;;;;;;;;4971465;28;20023;-62
2023/02/19 10:01:46;;;;;;;122.70;5.53;;;;;;;;;;4969945;28;20077;-62
2023/02/19 10:04:11;;;;;;;126.30;5.55;;;;;;;;;;4970140;28;20029;-62
2023/02/19 10:06:37;;;;;;;107.83;4.70;;;;;;;;;;4971834;28;20043;-63
2023/02/19 10:09:05;;;;;;;137.00;5.70;;;;;;;;;;4969514;28;20282;-63
2023/02/19 10:11:30;;;;;;;157.48;6.22;;;;;;;;;;4968837;28;20298;-62
2023/02/19 10:14:08;;;;;;;146.38;5.90;;;;;;;;;;4968347;28;20176;-63
2023/02/19 10:16:34;;;;;;;171.23;6.82;;;;;;;;;;4967210;28;20031;-62
2023/02/19 10:18:59;;;;;;;186.43;7.53;;;;;;;;;;4966753;28;20031;-61
2023/02/19 10:21:26;;;;;;;128.43;5.33;;;;;;;;;;4967932;28;20402;-62
2023/02/19 10:23:53;;;;;;;140.98;5.55;;;;;;;;;;4969826;28;20265;-61
2023/02/19 10:26:19;;;;;;;147.07;5.90;;;;;;;;;;4968892;28;20031;-60
2023/02/19 10:28:44;;;;;;;169.73;6.72;;;;;;;;;;4970686;28;20453;-63
2023/02/19 10:31:14;;;;;;;142.43;6.07;;;;;;;;;;4967685;28;20050;-63
2023/02/19 10:33:49;;;;;;;140.43;5.78;;;;;;;;;;4969601;28;20088;-62
2023/02/19 10:36:26;;;;;;;145.82;6.28;;;;;;;;;;4970528;28;20057;-63
2023/02/19 10:38:52;;;;;;;167.75;6.70;;;;;;;;;;4968240;28;20022;-63
2023/02/19 10:41:21;;;;;;;140.88;5.88;;;;;;;;;;4967254;28;20038;-63
2023/02/19 10:44:02;;;;;;;157.85;6.47;;;;;;;;;;4969161;28;20085;-62
2023/02/19 10:46:30;;;;;;;135.05;5.80;;;;;;;;;;4969740;28;20690;-62
2023/02/19 10:48:59;;;;;;;170.65;7.25;;;;;;;;;;4965383;28;20019;-62
2023/02/19 10:51:33;;;;;;;131.57;5.70;;;;;;;;;;4968298;28;20039;-63
2023/02/19 10:54:17;;;;;;;128.18;5.93;;;;;;;;;;4967117;28;20532;-60
2023/02/19 10:56:42;;;;;;;108.00;4.93;;;;;;;;;;4968913;28;20045;-62
2023/02/19 10:59:16;;;;;;;145.15;6.38;;;;;;;;;;4968367;28;20039;-63
2023/02/19 11:02:01;;;;;;;113.90;4.97;;;;;;;;;;4967540;28;20038;-62
2023/02/19 11:04:33;;;;;;;125.53;5.55;;;;;;;;;;4968880;28;20058;-63
2023/02/19 11:07:28;;;;;;;104.72;5.00;;;;;;;;;;4972018;28;20118;-63
2023/02/19 11:09:54;;;;;;;142.38;5.82;;;;;;;;;;4948791;28;20030;-60
2023/02/19 11:12:23;;;;;;;108.97;5.07;;;;;;;;;;4969648;28;20053;-62
2023/02/19 11:14:48;;;;;;;129.93;6.13;;;;;;;;;;4951991;28;20415;-63
2023/02/19 11:17:24;;;;;;;227.82;9.07;;;;;;;;;;4966136;28;20895;-60
2023/02/19 11:19:54;;;;;;;243.70;9.65;;;;;;;;;;4965274;28;20022;-61
2023/02/19 11:22:19;;;;;;;154.10;6.50;;;;;;;;;;4966249;28;20083;-60
2023/02/19 11:24:51;;;;;;;147.18;6.68;;;;;;;;;;4967743;28;21039;-59
2023/02/19 11:27:18;;;;;;;110.25;6.05;;;;;;;;;;4967925;28;20066;-61
2023/02/19 11:29:43;;;;;;;163.43;8.10;;;;;;;;;;4967257;28;20486;-60
2023/02/19 11:32:23;;;;;;;166.80;7.07;;;;;;;;;;4967177;28;20035;-60
2023/02/19 11:34:48;;;;;;;210.02;8.57;;;;;;;;;;4966377;28;20090;-60
2023/02/19 11:37:18;;;;;;;221.73;9.15;;;;;;;;;;4968916;28;20030;-61
2023/02/19 11:39:45;;;;;;;226.32;8.80;;;;;;;;;;4966510;28;20509;-62
2023/02/19 11:42:10;;;;;;;177.55;7.32;;;;;;;;;;4966462;28;20062;-61
2023/02/19 11:44:41;;;;;;;179.53;6.87;;;;;;;;;;4967393;28;20046;-60
2023/02/19 11:47:25;;;;;;;159.40;6.90;;;;;;;;;;4967107;28;20369;-61
2023/02/19 11:49:54;;;;;;;210.85;8.30;;;;;;;;;;4957006;28;20085;-59
2023/02/19 11:52:45;;;;;;;203.57;8.20;;;;;;;;;;4966851;28;20027;-61
2023/02/19 11:55:13;;;;;;;205.50;8.85;;;;;;;;;;4953544;28;20051;-61
2023/02/19 11:57:38;;;;;;;224.77;8.40;;;;;;;;;;4966528;28;20033;-61
2023/02/19 12:00:16;;;;;;;200.50;8.07;;;;;;;;;;4967800;28;20026;-61
2023/02/19 12:02:54;;;;;;;145.68;6.68;;;;;;;;;;4966284;28;20510;-58
2023/02/19 12:05:32;;;;;;;190.52;7.78;;;;;;;;;;4964336;28;20112;-61
2023/02/19 12:08:01;;;;;;;200.70;8.23;;;;;;;;;;4966021;28;20070;-62
2023/02/19 12:10:26;;;;;;;148.40;6.28;;;;;;;;;;4966192;28;20042;-59
2023/02/19 12:12:51;;;;;;;147.93;6.40;;;;;;;;;;4968036;28;20509;-62
2023/02/19 12:15:25;;;;;;;157.88;7.07;;;;;;;;;;4965718;28;20018;-62
2023/02/19 12:17:53;;;;;;;114.72;5.72;;;;;;;;;;4966744;28;20018;-64
2023/02/19 12:20:21;;;;;;;149.50;7.35;;;;;;;;;;4965697;28;20018;-61
2023/02/19 12:22:53;;;;;;;177.35;7.22;;;;;;;;;;4963864;28;20173;-60
2023/02/19 12:25:37;;;;;;;185.00;7.75;;;;;;;;;;4965901;28;20633;-65
2023/02/19 12:28:27;;;;;;;96.70;5.18;;;;;;;;;;4966864;28;20584;-66
2023/02/19 12:31:18;;;;;;;157.43;6.82;;;;;;;;;;4958279;28;20470;-66
2023/02/19 12:34:07;;;;;;;145.53;6.60;;;;;;;;;;4931457;28;20694;-65
2023/02/19 12:36:32;;;;;;;202.55;8.60;;;;;;;;;;4953511;28;20066;-62
2023/02/19 12:39:00;;;;;;;198.47;8.33;;;;;;;;;;4967509;28;20604;-61
2023/02/19 12:41:26;;;;;;;175.02;6.65;;;;;;;;;;4966090;28;20258;-60
2023/02/19 12:43:54;;;;;;;207.00;8.50;;;;;;;;;;4964762;28;20026;-61
2023/02/19 12:46:32;;;;;;;202.48;8.07;;;;;;;;;;4966272;28;20258;-60
2023/02/19 12:49:01;;;;;;;161.02;6.93;;;;;;;;;;4965656;28;20097;-59
2023/02/19 12:51:30;;;;;;;158.48;6.85;;;;;;;;;;4965265;28;20084;-59
2023/02/19 12:54:10;;;;;;;224.48;8.60;;;;;;;;;;4964912;28;20030;-62
2023/02/19 12:56:43;;;;;;;160.07;6.68;;;;;;;;;;4957449;28;20037;-61
2023/02/19 12:59:08;;;;;;;;;;;;;;;;;;4966965;28;20634;-63
2023/02/19 13:01:38;;;;;;;173.05;7.45;;;;;;;;;;4965547;28;19921;-62
2023/02/19 13:04:06;;;;;;;258.85;10.50;;;;;;;;;;4966528;28;20568;-61
2023/02/19 13:06:44;;;;;;;145.00;6.60;;;;;;;;;;4964661;28;20746;-66
2023/02/19 13:09:25;;;;;;;171.90;7.80;;;;;;;;;;4966145;28;20022;-60
2023/02/19 13:11:55;;;;;;;163.50;9.50;;;;;;;;;;4965689;28;20027;-65
2023/02/19 13:14:26;;;;;;;172.45;8.38;;;;;;;;;;4965367;28;20022;-64
2023/02/19 13:16:55;;;;;;;174.98;7.38;;;;;;;;;;4965343;28;20490;-64
2023/02/19 13:19:20;;;;;;;177.80;7.10;;;;;;;;;;4965697;28;20031;-65
2023/02/19 13:24:35;;;;;;;204.85;7.88;;;;;;;;;;4964566;28;20288;-65
2023/02/19 13:27:29;;;;;;;202.43;7.90;;;;;;;;;;4966392;28;20856;-65
2023/02/19 13:30:04;;;;;;;232.43;8.68;;;;;;;;;;4947818;28;20030;-64
2023/02/19 13:32:32;;;;;;;127.10;5.43;;;;;;;;;;4964932;28;20019;-64
2023/02/19 13:34:57;;;;;;;131.85;6.22;;;;;;;;;;4967193;28;20018;-64
2023/02/19 13:37:23;;;;;;;92.00;5.00;;;;;;;;;;4966972;28;20084;-64
2023/02/19 13:39:50;;;;;;;171.95;7.13;;;;;;;;;;4965031;28;20349;-61
2023/02/19 13:42:22;;;;;;;129.88;6.07;;;;;;;;;;4963921;28;20042;-63
2023/02/19 13:44:48;;;;;;;137.95;5.97;;;;;;;;;;4966061;28;20510;-62
2023/02/19 13:47:31;;;;;;;152.80;6.72;;;;;;;;;;4965023;28;20118;-59
2023/02/19 13:50:03;;;;;;;256.67;10.32;;;;;;;;;;4961619;28;20081;-62
2023/02/19 13:52:28;;;;;;;197.25;8.20;;;;;;;;;;4961702;28;20042;-63
2023/02/19 13:55:12;;;;;;;164.20;7.13;;;;;;;;;;4963382;28;20021;-63
2023/02/19 13:57:38;;;;;;;263.75;9.88;;;;;;;;;;4962020;28;20037;-58
2023/02/19 14:00:23;;;;;;;296.15;10.93;;;;;;;;;;4952397;28;20031;-59
2023/02/19 14:02:48;;;;;;;213.43;8.75;;;;;;;;;;4943711;28;20049;-58
2023/02/19 14:05:33;;;;;;;208.70;7.97;;;;;;;;;;4960767;28;20019;-59
2023/02/19 14:07:58;;;;;;;183.55;7.45;;;;;;;;;;4965608;28;20309;-58
2023/02/19 14:10:42;;;;;;;189.15;7.25;;;;;;;;;;4964587;28;20101;-61
2023/02/19 14:13:08;;;;;;;169.75;6.53;;;;;;;;;;4965172;28;20445;-61
2023/02/19 14:15:42;;;;;;;203.50;7.85;;;;;;;;;;4966031;28;20034;-64
2023/02/19 14:18:26;;;;;;;204.45;7.40;;;;;;;;;;4964527;28;20491;-61
2023/02/19 14:21:04;;;;;;;183.15;7.00;;;;;;;;;;4946723;28;20027;-60
2023/02/19 14:23:29;;;;;;;193.18;7.43;;;;;;;;;;4964491;28;20038;-59
2023/02/19 14:25:58;;;;;;;208.57;7.90;;;;;;;;;;4963679;28;20084;-59
2023/02/19 14:28:23;;;;;;;172.85;6.65;;;;;;;;;;4966588;28;20030;-62
2023/02/19 14:31:09;;;;;;;133.67;5.73;;;;;;;;;;4956093;28;20030;-63
2023/02/19 14:33:36;;;;;;;201.05;7.70;;;;;;;;;;4966931;28;20801;-63
2023/02/19 14:36:01;;;;;;;292.77;10.88;;;;;;;;;;4968439;28;20043;-63
2023/02/19 14:38:35;;;;;;;183.93;7.07;;;;;;;;;;4954388;28;20680;-62
2023/02/19 14:41:01;;;;;;;141.20;5.40;;;;;;;;;;4968556;28;20127;-63
2023/02/19 14:43:27;;;;;;;180.20;7.10;;;;;;;;;;4968022;28;20514;-62
2023/02/19 14:45:57;;;;;;;131.82;5.50;;;;;;;;;;4968049;28;20031;-63
2023/02/19 14:48:29;;;;;;;126.68;5.32;;;;;;;;;;4966926;28;20026;-64
2023/02/19 14:50:56;;;;;;;123.70;5.13;;;;;;;;;;4966258;28;20034;-60